Time;durP1;ratioP1;P1;durP2;ratioP2;P2;SDS_P1;SDS_P2;PMS_P1;PMS_P2;Temp;Humidity;BMP_temperature;BMP_pressure;BME280_temperature;BME280_humidity;BME280_pressure;Samples;Min_cycle;Max_cycle;Signal;HPM_P1;HPM_P2
2022/05/08 00:01:37;;;;;;;18.60;16.80;;;;;;;;;;5048774;28;20982;-76
2022/05/08 00:04:13;;;;;;;17.60;15.80;;;;;;;;;;5061859;28;20492;-76
2022/05/08 00:06:48;;;;;;;19.33;17.33;;;;;;;;;;5050964;28;20821;-76
2022/05/08 00:09:30;;;;;;;20.77;17.80;;;;;;;;;;5064536;28;20529;-76
2022/05/08 00:12:06;;;;;;;17.43;14.87;;;;;;;;;;5069844;28;20869;-76
2022/05/08 00:14:42;;;;;;;17.40;15.60;;;;;;;;;;5051198;28;20792;-76
2022/05/08 00:17:18;;;;;;;17.30;15.50;;;;;;;;;;5051021;28;21019;-76
2022/05/08 00:19:53;;;;;;;16.67;14.93;;;;;;;;;;5066226;28;20446;-75
2022/05/08 00:22:30;;;;;;;16.27;14.60;;;;;;;;;;5051668;28;20441;-76
2022/05/08 00:25:07;;;;;;;16.50;14.90;;;;;;;;;;5069526;28;20467;-76
2022/05/08 00:27:42;;;;;;;16.60;15.00;;;;;;;;;;5040834;28;20836;-76
2022/05/08 00:30:18;;;;;;;16.60;14.90;;;;;;;;;;5068738;28;20811;-75
2022/05/08 00:32:53;;;;;;;15.93;14.33;;;;;;;;;;5044470;28;20568;-76
2022/05/08 00:35:30;;;;;;;17.00;15.30;;;;;;;;;;5068566;28;20433;-75
2022/05/08 00:38:05;;;;;;;17.83;15.93;;;;;;;;;;5041782;28;20901;-76
2022/05/08 00:40:42;;;;;;;16.20;14.00;;;;;;;;;;5034854;28;20477;-76
2022/05/08 00:43:31;;;;;;;18.67;16.80;;;;;;;;;;5032947;28;20556;-75
2022/05/08 00:46:06;;;;;;;16.23;14.63;;;;;;;;;;5048134;28;20450;-76
2022/05/08 00:48:42;;;;;;;16.03;14.27;;;;;;;;;;5063872;28;20544;-76
2022/05/08 00:51:18;;;;;;;18.03;16.13;;;;;;;;;;5068335;28;20461;-76
2022/05/08 00:53:54;;;;;;;16.83;15.13;;;;;;;;;;5049722;28;20960;-75
2022/05/08 00:56:31;;;;;;;16.73;15.00;;;;;;;;;;5065192;28;20453;-76
2022/05/08 00:59:06;;;;;;;17.30;15.50;;;;;;;;;;5052188;28;20520;-75
2022/05/08 01:01:42;;;;;;;17.10;15.10;;;;;;;;;;5051512;28;20445;-76
2022/05/08 01:04:17;;;;;;;17.90;16.00;;;;;;;;;;5032270;28;20461;-76
2022/05/08 01:06:52;;;;;;;17.80;15.90;;;;;;;;;;5049339;28;20433;-75
2022/05/08 01:09:30;;;;;;;16.03;14.43;;;;;;;;;;5069344;28;20889;-76
2022/05/08 01:12:09;;;;;;;18.50;16.57;;;;;;;;;;5069056;28;20449;-75
2022/05/08 01:14:45;;;;;;;16.83;15.07;;;;;;;;;;5049946;28;20446;-76
2022/05/08 01:17:20;;;;;;;16.43;14.67;;;;;;;;;;5048687;28;20485;-75
2022/05/08 01:19:55;;;;;;;18.23;16.27;;;;;;;;;;5047862;28;20446;-75
2022/05/08 01:22:32;;;;;;;15.90;14.20;;;;;;;;;;5045247;28;20845;-75
2022/05/08 01:25:07;;;;;;;17.00;15.10;;;;;;;;;;5045514;28;20871;-76
2022/05/08 01:27:43;;;;;;;16.53;14.83;;;;;;;;;;5049604;28;20792;-76
2022/05/08 01:30:18;;;;;;;17.77;15.40;;;;;;;;;;5067582;28;20456;-76
2022/05/08 01:32:53;;;;;;;16.43;14.60;;;;;;;;;;5064052;28;20463;-75
2022/05/08 01:35:30;;;;;;;16.40;14.80;;;;;;;;;;5050801;28;20519;-75
2022/05/08 01:38:07;;;;;;;17.20;14.50;;;;;;;;;;5062038;28;20465;-75
2022/05/08 01:40:44;;;;;;;16.20;14.20;;;;;;;;;;5069722;28;20441;-75
2022/05/08 01:43:19;;;;;;;17.90;16.07;;;;;;;;;;5055354;28;20459;-76
2022/05/08 01:45:56;;;;;;;16.80;15.10;;;;;;;;;;5047554;28;20437;-77
2022/05/08 01:48:32;;;;;;;16.70;14.70;;;;;;;;;;5034280;28;20433;-77
2022/05/08 01:51:07;;;;;;;19.33;17.40;;;;;;;;;;5051753;28;20457;-77
2022/05/08 01:53:44;;;;;;;18.00;16.20;;;;;;;;;;5064449;28;20438;-77
2022/05/08 01:56:20;;;;;;;16.80;15.10;;;;;;;;;;5054288;28;20449;-77
2022/05/08 01:58:55;;;;;;;18.23;16.23;;;;;;;;;;5044638;28;21248;-77
2022/05/08 02:01:30;;;;;;;19.47;17.47;;;;;;;;;;5072296;28;20453;-77
2022/05/08 02:04:15;;;;;;;18.57;15.93;;;;;;;;;;5070428;28;20813;-77
2022/05/08 02:06:50;;;;;;;18.37;16.40;;;;;;;;;;5048649;28;20889;-77
2022/05/08 02:09:27;;;;;;;18.97;16.97;;;;;;;;;;5046100;28;20483;-77
2022/05/08 02:12:05;;;;;;;18.77;16.77;;;;;;;;;;5065608;28;20464;-77
2022/05/08 02:14:45;;;;;;;19.00;17.10;;;;;;;;;;5052777;28;20437;-77
2022/05/08 02:17:22;;;;;;;17.23;15.37;;;;;;;;;;5060834;28;20453;-77
2022/05/08 02:19:57;;;;;;;17.63;15.73;;;;;;;;;;5062742;28;20458;-77
2022/05/08 02:22:33;;;;;;;18.67;16.67;;;;;;;;;;5072539;28;20457;-77
2022/05/08 02:25:10;;;;;;;19.00;17.10;;;;;;;;;;5072822;28;20497;-77
2022/05/08 02:27:49;;;;;;;18.57;16.57;;;;;;;;;;5051533;28;20457;-77
2022/05/08 02:30:25;;;;;;;17.97;16.07;;;;;;;;;;5051656;28;20537;-77
2022/05/08 02:33:02;;;;;;;17.90;15.83;;;;;;;;;;5050173;28;20437;-77
2022/05/08 02:35:40;;;;;;;19.50;17.40;;;;;;;;;;5068434;28;20481;-76
2022/05/08 02:38:15;;;;;;;19.77;16.73;;;;;;;;;;5052908;28;20474;-76
2022/05/08 02:40:52;;;;;;;17.63;15.57;;;;;;;;;;5067609;28;20449;-76
2022/05/08 02:43:27;;;;;;;18.00;16.10;;;;;;;;;;5051069;28;20792;-76
2022/05/08 02:46:05;;;;;;;19.87;17.47;;;;;;;;;;5050548;28;20433;-76
2022/05/08 02:48:40;;;;;;;19.53;17.17;;;;;;;;;;5069946;28;20532;-77
2022/05/08 02:51:15;;;;;;;20.30;17.47;;;;;;;;;;5052501;28;20847;-77
2022/05/08 02:53:51;;;;;;;19.77;16.23;;;;;;;;;;5045534;28;20461;-77
2022/05/08 02:59:21;;;;;;;18.70;16.70;;;;;;;;;;5070119;28;20777;-76
2022/05/08 03:01:56;;;;;;;19.77;17.67;;;;;;;;;;5045932;28;20434;-76
2022/05/08 03:04:32;;;;;;;19.30;17.30;;;;;;;;;;5047352;28;20469;-76
2022/05/08 03:07:07;;;;;;;19.60;17.50;;;;;;;;;;5054544;28;20450;-77
2022/05/08 03:09:42;;;;;;;20.47;18.37;;;;;;;;;;5049687;28;20540;-76
2022/05/08 03:12:19;;;;;;;18.20;16.40;;;;;;;;;;5052284;28;20544;-76
2022/05/08 03:14:55;;;;;;;20.43;18.33;;;;;;;;;;5046497;28;20537;-77
2022/05/08 03:17:31;;;;;;;17.33;15.43;;;;;;;;;;5049507;28;20449;-76
2022/05/08 03:20:08;;;;;;;18.73;16.73;;;;;;;;;;5064036;28;20453;-76
2022/05/08 03:22:43;;;;;;;17.63;15.80;;;;;;;;;;5051699;28;20552;-76
2022/05/08 03:25:19;;;;;;;16.77;15.07;;;;;;;;;;5069871;28;20461;-76
2022/05/08 03:27:55;;;;;;;16.70;15.00;;;;;;;;;;5047733;28;20474;-76
2022/05/08 03:30:31;;;;;;;19.10;17.10;;;;;;;;;;5069393;28;20473;-76
2022/05/08 03:33:08;;;;;;;20.40;17.80;;;;;;;;;;5052277;28;20461;-76
2022/05/08 03:35:43;;;;;;;19.97;17.80;;;;;;;;;;5051676;28;20923;-76
2022/05/08 03:38:19;;;;;;;26.97;21.67;;;;;;;;;;5049316;28;20711;-76
2022/05/08 03:40:55;;;;;;;21.47;19.27;;;;;;;;;;5050427;28;20839;-76
2022/05/08 03:43:32;;;;;;;24.57;21.53;;;;;;;;;;5071114;28;20499;-76
2022/05/08 03:46:07;;;;;;;23.30;20.80;;;;;;;;;;5067711;28;20461;-76
2022/05/08 03:48:42;;;;;;;22.77;20.13;;;;;;;;;;5050062;28;20550;-77
2022/05/08 03:51:18;;;;;;;23.33;20.17;;;;;;;;;;5068473;28;20491;-76
2022/05/08 03:53:54;;;;;;;24.07;20.13;;;;;;;;;;5071195;28;20438;-76
2022/05/08 03:56:31;;;;;;;25.33;21.97;;;;;;;;;;5032262;28;20519;-76
2022/05/08 03:59:09;;;;;;;22.80;19.33;;;;;;;;;;5052379;28;20453;-77
2022/05/08 04:01:44;;;;;;;23.57;20.20;;;;;;;;;;5062568;28;20445;-76
2022/05/08 04:04:20;;;;;;;23.40;20.90;;;;;;;;;;5048603;28;20458;-76
2022/05/08 04:06:55;;;;;;;23.30;19.87;;;;;;;;;;5048183;28;20438;-77
2022/05/08 04:09:30;;;;;;;24.33;21.67;;;;;;;;;;5059091;28;20455;-76
2022/05/08 04:12:06;;;;;;;23.00;20.20;;;;;;;;;;5050866;28;20482;-76
2022/05/08 04:14:42;;;;;;;24.40;21.03;;;;;;;;;;5068546;28;20430;-76
2022/05/08 04:17:17;;;;;;;22.70;20.40;;;;;;;;;;5049848;28;20944;-75
2022/05/08 04:19:53;;;;;;;22.53;19.73;;;;;;;;;;5067668;28;20541;-75
2022/05/08 04:25:23;;;;;;;20.90;18.80;;;;;;;;;;5043637;28;20540;-75
2022/05/08 04:28:00;;;;;;;26.17;21.10;;;;;;;;;;5063895;28;20449;-75
2022/05/08 04:30:36;;;;;;;21.30;18.80;;;;;;;;;;5051744;28;20442;-77
2022/05/08 04:33:11;;;;;;;22.50;19.60;;;;;;;;;;5067875;28;20788;-75
2022/05/08 04:35:47;;;;;;;23.77;21.27;;;;;;;;;;5068027;28;20430;-75
2022/05/08 04:38:22;;;;;;;24.43;20.70;;;;;;;;;;5043335;28;20493;-76
2022/05/08 04:40:57;;;;;;;22.07;19.37;;;;;;;;;;5045904;28;20541;-78
2022/05/08 04:43:32;;;;;;;22.73;20.23;;;;;;;;;;5050043;28;20794;-75
2022/05/08 04:46:11;;;;;;;25.17;22.47;;;;;;;;;;5044280;28;20519;-76
2022/05/08 04:48:47;;;;;;;23.57;20.97;;;;;;;;;;5046997;28;20435;-76
2022/05/08 04:51:22;;;;;;;24.50;20.50;;;;;;;;;;5047661;28;20545;-76
2022/05/08 04:53:57;;;;;;;23.80;19.77;;;;;;;;;;5048826;28;20442;-76
2022/05/08 04:56:33;;;;;;;25.23;21.43;;;;;;;;;;5046455;28;20462;-76
2022/05/08 04:59:08;;;;;;;26.13;21.57;;;;;;;;;;5064933;28;20430;-76
2022/05/08 05:01:46;;;;;;;22.30;19.97;;;;;;;;;;5043274;28;20964;-76
2022/05/08 05:04:22;;;;;;;23.43;20.93;;;;;;;;;;5045649;28;20459;-76
2022/05/08 05:06:59;;;;;;;23.10;20.60;;;;;;;;;;5049711;28;20459;-76
2022/05/08 05:09:34;;;;;;;24.83;22.20;;;;;;;;;;5045106;28;20438;-76
2022/05/08 05:12:10;;;;;;;24.70;22.00;;;;;;;;;;5043678;28;20447;-76
2022/05/08 05:14:45;;;;;;;26.20;22.50;;;;;;;;;;5045289;28;20442;-76
2022/05/08 05:17:22;;;;;;;30.60;24.87;;;;;;;;;;5047333;28;20858;-76
2022/05/08 05:19:57;;;;;;;22.97;20.57;;;;;;;;;;5046847;28;20933;-76
2022/05/08 05:22:32;;;;;;;25.73;23.00;;;;;;;;;;5048984;28;20458;-76
2022/05/08 05:25:08;;;;;;;28.87;24.60;;;;;;;;;;5029141;28;20454;-76
2022/05/08 05:27:44;;;;;;;29.23;24.23;;;;;;;;;;5043003;28;20553;-76
2022/05/08 05:30:19;;;;;;;26.00;23.20;;;;;;;;;;5045010;28;20455;-76
2022/05/08 05:32:56;;;;;;;29.03;25.30;;;;;;;;;;5049238;28;20458;-76
2022/05/08 05:35:31;;;;;;;28.10;25.03;;;;;;;;;;5048655;28;20463;-76
2022/05/08 05:38:09;;;;;;;26.97;24.07;;;;;;;;;;5048715;28;20450;-76
2022/05/08 05:40:45;;;;;;;25.80;22.17;;;;;;;;;;5062291;28;20796;-76
2022/05/08 05:43:20;;;;;;;25.60;22.90;;;;;;;;;;5046957;28;20442;-76
2022/05/08 05:48:46;;;;;;;25.53;22.83;;;;;;;;;;5049883;28;20434;-76
2022/05/08 05:51:22;;;;;;;22.30;19.90;;;;;;;;;;5064052;28;20485;-76
2022/05/08 05:53:58;;;;;;;21.40;18.80;;;;;;;;;;5064146;28;20944;-76
2022/05/08 05:56:34;;;;;;;22.37;19.63;;;;;;;;;;5029296;28;20958;-76
2022/05/08 05:59:09;;;;;;;23.70;21.20;;;;;;;;;;5047952;28;20461;-76
2022/05/08 06:01:44;;;;;;;24.17;21.57;;;;;;;;;;5047582;28;20453;-76
2022/05/08 06:04:21;;;;;;;25.83;22.30;;;;;;;;;;5065527;28;20916;-76
2022/05/08 06:06:56;;;;;;;23.63;21.03;;;;;;;;;;5063004;28;20456;-76
2022/05/08 06:09:31;;;;;;;23.53;19.43;;;;;;;;;;5064470;28;20536;-76
2022/05/08 06:12:07;;;;;;;23.30;20.73;;;;;;;;;;5048878;28;20552;-76
2022/05/08 06:14:42;;;;;;;25.53;21.43;;;;;;;;;;5066827;28;20466;-76
2022/05/08 06:17:17;;;;;;;22.90;20.40;;;;;;;;;;5047879;28;20936;-76
2022/05/08 06:19:54;;;;;;;24.90;22.00;;;;;;;;;;5062280;28;20796;-76
2022/05/08 06:22:29;;;;;;;22.87;20.47;;;;;;;;;;5069452;28;20513;-76
2022/05/08 06:25:05;;;;;;;23.00;20.60;;;;;;;;;;5069672;28;20493;-76
2022/05/08 06:27:41;;;;;;;23.03;20.17;;;;;;;;;;5044760;28;20458;-76
2022/05/08 06:30:16;;;;;;;22.60;19.27;;;;;;;;;;5055704;28;20446;-76
2022/05/08 06:32:52;;;;;;;21.60;19.30;;;;;;;;;;5069988;28;20461;-76
2022/05/08 06:35:29;;;;;;;23.03;20.50;;;;;;;;;;5053417;28;20441;-76
2022/05/08 06:38:04;;;;;;;22.63;20.33;;;;;;;;;;5047065;28;20465;-76
2022/05/08 06:40:40;;;;;;;22.90;20.50;;;;;;;;;;5045968;28;20447;-76
2022/05/08 06:43:15;;;;;;;24.13;20.23;;;;;;;;;;5049249;28;20458;-76
2022/05/08 06:45:51;;;;;;;22.27;19.87;;;;;;;;;;5048396;28;21363;-76
2022/05/08 06:48:28;;;;;;;23.90;20.50;;;;;;;;;;5060384;28;20441;-76
2022/05/08 06:51:06;;;;;;;23.20;19.67;;;;;;;;;;5062005;28;20438;-76
2022/05/08 06:53:43;;;;;;;22.30;19.90;;;;;;;;;;5069400;28;20909;-77
2022/05/08 06:56:18;;;;;;;23.30;20.90;;;;;;;;;;5049618;28;20470;-77
2022/05/08 07:01:47;;;;;;;21.67;19.37;;;;;;;;;;5046824;28;20532;-77
2022/05/08 07:04:23;;;;;;;22.07;19.13;;;;;;;;;;5060992;28;21042;-76
2022/05/08 07:07:00;;;;;;;20.80;18.70;;;;;;;;;;5061310;28;20445;-76
2022/05/08 07:09:36;;;;;;;20.30;18.17;;;;;;;;;;5042963;28;20918;-76
2022/05/08 07:12:11;;;;;;;22.13;18.03;;;;;;;;;;5068147;28;20449;-76
2022/05/08 07:14:47;;;;;;;25.03;19.17;;;;;;;;;;5068724;28;20530;-76
2022/05/08 07:17:28;;;;;;;21.80;19.60;;;;;;;;;;5053061;28;20633;-77
2022/05/08 07:20:05;;;;;;;21.13;18.93;;;;;;;;;;5063865;28;20449;-77
2022/05/08 07:22:41;;;;;;;22.10;19.87;;;;;;;;;;5065962;28;21215;-76
2022/05/08 07:25:17;;;;;;;22.03;19.10;;;;;;;;;;5051944;28;20462;-76
2022/05/08 07:27:52;;;;;;;19.90;18.00;;;;;;;;;;5067891;28;20442;-77
2022/05/08 07:30:27;;;;;;;20.97;18.77;;;;;;;;;;5053180;28;20996;-77
2022/05/08 07:33:04;;;;;;;22.57;19.90;;;;;;;;;;5035799;28;20454;-76
2022/05/08 07:38:34;;;;;;;20.10;18.10;;;;;;;;;;5068977;28;20465;-76
2022/05/08 07:41:21;;;;;;;19.03;17.10;;;;;;;;;;5068304;28;20549;-76
2022/05/08 07:43:56;;;;;;;19.20;17.20;;;;;;;;;;5049632;28;20450;-76
2022/05/08 07:46:31;;;;;;;17.47;15.67;;;;;;;;;;5041644;28;21006;-76
2022/05/08 07:49:08;;;;;;;16.07;14.47;;;;;;;;;;5065440;28;20450;-77
2022/05/08 07:51:44;;;;;;;19.70;16.47;;;;;;;;;;5066483;28;20454;-76
2022/05/08 07:54:21;;;;;;;17.63;15.83;;;;;;;;;;5045669;28;20438;-76
2022/05/08 07:56:56;;;;;;;17.03;15.23;;;;;;;;;;5035606;28;20460;-77
2022/05/08 07:59:31;;;;;;;15.00;13.40;;;;;;;;;;5067440;28;20473;-77
2022/05/08 08:02:07;;;;;;;14.90;13.30;;;;;;;;;;5061873;28;20794;-77
2022/05/08 08:04:42;;;;;;;14.67;13.20;;;;;;;;;;5050848;28;20887;-77
2022/05/08 08:07:18;;;;;;;14.80;13.30;;;;;;;;;;5050878;28;20449;-77
2022/05/08 08:09:54;;;;;;;14.57;13.17;;;;;;;;;;5030487;28;20453;-77
2022/05/08 08:12:31;;;;;;;15.20;13.43;;;;;;;;;;5045594;28;20461;-77
2022/05/08 08:15:07;;;;;;;15.70;14.20;;;;;;;;;;5066846;28;20445;-77
2022/05/08 08:17:42;;;;;;;15.17;13.60;;;;;;;;;;5066163;28;20453;-77
2022/05/08 08:20:30;;;;;;;14.63;13.20;;;;;;;;;;5066599;28;20457;-77
2022/05/08 08:23:06;;;;;;;13.90;12.60;;;;;;;;;;5063133;28;20457;-77
2022/05/08 08:25:43;;;;;;;12.93;11.73;;;;;;;;;;5044343;28;20462;-78
2022/05/08 08:28:18;;;;;;;14.87;13.53;;;;;;;;;;5050610;28;20473;-77
2022/05/08 08:30:54;;;;;;;14.90;13.50;;;;;;;;;;5050685;28;20430;-77
2022/05/08 08:33:30;;;;;;;14.70;13.20;;;;;;;;;;5066954;28;20441;-78
2022/05/08 08:39:01;;;;;;;14.17;12.67;;;;;;;;;;5048746;28;20462;-77
2022/05/08 08:41:42;;;;;;;15.63;13.20;;;;;;;;;;5050261;28;20470;-77
2022/05/08 08:50:17;;;;;;;15.00;13.50;;;;;;;;;;5047610;28;20429;-77
2022/05/08 08:52:54;;;;;;;14.23;12.93;;;;;;;;;;5060186;28;20453;-77
2022/05/08 08:55:32;;;;;;;12.90;11.70;;;;;;;;;;5047128;28;20952;-77
2022/05/08 08:58:09;;;;;;;15.93;14.43;;;;;;;;;;5051687;28;20532;-78
2022/05/08 09:00:46;;;;;;;15.33;13.93;;;;;;;;;;5049867;28;20442;-77
2022/05/08 09:03:25;;;;;;;16.13;14.10;;;;;;;;;;5068395;28;20499;-77
2022/05/08 09:06:02;;;;;;;14.53;13.20;;;;;;;;;;5057170;28;20462;-77
2022/05/08 09:08:49;;;;;;;14.43;12.93;;;;;;;;;;5060750;28;21020;-77
2022/05/08 09:11:34;;;;;;;15.80;14.23;;;;;;;;;;5048293;28;20447;-77
2022/05/08 09:14:10;;;;;;;14.77;13.13;;;;;;;;;;5042363;28;20450;-77
2022/05/08 09:16:52;;;;;;;14.80;13.40;;;;;;;;;;5045792;28;20447;-77
2022/05/08 09:19:37;;;;;;;14.40;13.10;;;;;;;;;;5047861;28;20473;-77
2022/05/08 09:22:12;;;;;;;15.50;13.90;;;;;;;;;;5066429;28;20836;-77
2022/05/08 09:24:52;;;;;;;16.07;14.47;;;;;;;;;;5066110;28;20437;-77
2022/05/08 09:27:28;;;;;;;15.50;14.00;;;;;;;;;;5063102;28;20481;-77
2022/05/08 09:30:10;;;;;;;13.80;12.30;;;;;;;;;;5065040;28;20445;-77
2022/05/08 09:32:50;;;;;;;14.57;13.23;;;;;;;;;;5067786;28;20855;-77
2022/05/08 09:35:25;;;;;;;14.33;13.03;;;;;;;;;;5056424;28;20458;-77
2022/05/08 09:38:00;;;;;;;14.60;13.27;;;;;;;;;;5046137;28;20454;-77
2022/05/08 09:40:36;;;;;;;15.13;13.70;;;;;;;;;;5040021;28;21241;-77
2022/05/08 09:43:26;;;;;;;16.10;14.57;;;;;;;;;;5069288;28;20426;-76
2022/05/08 09:46:04;;;;;;;16.10;14.07;;;;;;;;;;5047255;28;20510;-77
2022/05/08 09:48:42;;;;;;;14.40;13.00;;;;;;;;;;5061223;28;20908;-77
2022/05/08 09:51:17;;;;;;;14.60;13.27;;;;;;;;;;5047871;28;20860;-77
2022/05/08 09:53:54;;;;;;;15.97;14.47;;;;;;;;;;5064861;28;20441;-77
2022/05/08 09:56:30;;;;;;;16.60;14.90;;;;;;;;;;5064736;28;20716;-77
2022/05/08 09:59:07;;;;;;;14.10;12.70;;;;;;;;;;5053357;28;20472;-77
2022/05/08 10:01:42;;;;;;;16.30;14.60;;;;;;;;;;5067505;28;20445;-77
2022/05/08 10:04:19;;;;;;;14.87;13.37;;;;;;;;;;5035930;28;20449;-77
2022/05/08 10:06:56;;;;;;;16.20;14.70;;;;;;;;;;5068326;28;20815;-77
2022/05/08 10:15:18;;;;;;;14.70;13.20;;;;;;;;;;5046696;28;20439;-76
2022/05/08 10:18:13;;;;;;;15.43;13.87;;;;;;;;;;5049204;28;20446;-76
2022/05/08 10:21:06;;;;;;;12.53;11.33;;;;;;;;;;5036752;28;20442;-76
2022/05/08 10:23:43;;;;;;;14.20;12.73;;;;;;;;;;5050859;28;20438;-77
2022/05/08 10:26:19;;;;;;;13.20;12.00;;;;;;;;;;5063558;28;20470;-77
2022/05/08 10:29:11;;;;;;;12.60;11.40;;;;;;;;;;5068291;28;20449;-77
2022/05/08 10:31:47;;;;;;;13.77;12.37;;;;;;;;;;5060466;28;20447;-77
2022/05/08 10:34:31;;;;;;;12.13;10.90;;;;;;;;;;5053114;28;20793;-76
2022/05/08 10:37:29;;;;;;;9.60;8.70;;;;;;;;;;5068582;28;20501;-77
2022/05/08 10:40:05;;;;;;;12.30;8.73;;;;;;;;;;5052137;28;20569;-77
2022/05/08 10:42:45;;;;;;;8.97;8.07;;;;;;;;;;5067774;28;20932;-77
2022/05/08 10:45:41;;;;;;;9.87;8.93;;;;;;;;;;5053674;28;20524;-76
2022/05/08 10:48:17;;;;;;;8.50;7.80;;;;;;;;;;5052148;28;20442;-76
2022/05/08 10:50:57;;;;;;;7.87;7.17;;;;;;;;;;5070355;28;20465;-77
2022/05/08 10:53:34;;;;;;;9.93;8.07;;;;;;;;;;5045144;28;20483;-77
2022/05/08 10:56:11;;;;;;;8.10;7.30;;;;;;;;;;5072061;28;20449;-77
2022/05/08 10:58:55;;;;;;;8.67;7.87;;;;;;;;;;5070206;28;20529;-77
2022/05/08 11:01:35;;;;;;;9.47;8.57;;;;;;;;;;5063476;28;20902;-76
2022/05/08 11:04:11;;;;;;;9.10;8.30;;;;;;;;;;5052962;28;20446;-77
2022/05/08 11:06:51;;;;;;;9.70;8.80;;;;;;;;;;5051906;28;20480;-77
2022/05/08 11:09:28;;;;;;;9.27;8.37;;;;;;;;;;5065328;28;20481;-76
2022/05/08 11:12:07;;;;;;;9.20;8.30;;;;;;;;;;5051743;28;20943;-77
2022/05/08 11:14:42;;;;;;;9.20;8.40;;;;;;;;;;5049608;28;20486;-77
2022/05/08 11:17:18;;;;;;;9.53;7.50;;;;;;;;;;5049353;28;20449;-77
2022/05/08 11:19:57;;;;;;;9.03;7.43;;;;;;;;;;5049640;28;20442;-77
2022/05/08 11:22:33;;;;;;;8.50;7.70;;;;;;;;;;5063876;28;20531;-77
2022/05/08 11:25:14;;;;;;;8.70;7.80;;;;;;;;;;5047237;28;20856;-77
2022/05/08 11:27:51;;;;;;;9.20;8.40;;;;;;;;;;5048019;28;20826;-77
2022/05/08 11:30:31;;;;;;;9.70;8.70;;;;;;;;;;5053035;28;20449;-77
2022/05/08 11:36:07;;;;;;;9.93;8.93;;;;;;;;;;5068374;28;20434;-77
2022/05/08 11:38:42;;;;;;;8.73;7.83;;;;;;;;;;5064251;28;20469;-77
2022/05/08 11:41:20;;;;;;;8.43;7.53;;;;;;;;;;5069480;28;20445;-77
2022/05/08 11:43:56;;;;;;;8.33;7.53;;;;;;;;;;5044918;28;20831;-77
2022/05/08 11:46:36;;;;;;;7.20;6.53;;;;;;;;;;5066453;28;20481;-76
2022/05/08 11:49:15;;;;;;;7.47;6.83;;;;;;;;;;5068988;28;20987;-77
2022/05/08 11:51:51;;;;;;;6.40;5.90;;;;;;;;;;5063383;28;20486;-76
2022/05/08 11:54:32;;;;;;;6.20;5.60;;;;;;;;;;5047104;28;21001;-76
2022/05/08 11:57:13;;;;;;;5.77;5.27;;;;;;;;;;5050692;28;20450;-77
2022/05/08 11:59:49;;;;;;;6.00;5.50;;;;;;;;;;5049698;28;20456;-77
2022/05/08 12:02:38;;;;;;;6.50;5.87;;;;;;;;;;5065417;28;20454;-77
2022/05/08 12:05:17;;;;;;;6.67;6.07;;;;;;;;;;5065821;28;20450;-77
2022/05/08 12:07:53;;;;;;;5.60;5.10;;;;;;;;;;5050439;28;20945;-77
2022/05/08 12:10:37;;;;;;;5.33;4.83;;;;;;;;;;5065021;28;20469;-76
2022/05/08 12:13:14;;;;;;;4.97;4.47;;;;;;;;;;5050451;28;20434;-76
2022/05/08 12:15:50;;;;;;;6.50;4.97;;;;;;;;;;5051636;28;20433;-76
2022/05/08 12:18:26;;;;;;;5.17;4.63;;;;;;;;;;5065489;28;20457;-76
2022/05/08 12:21:01;;;;;;;6.90;4.57;;;;;;;;;;5032841;28;20446;-76
2022/05/08 12:23:45;;;;;;;5.90;5.40;;;;;;;;;;5051045;28;20445;-77
2022/05/08 12:26:20;;;;;;;6.10;5.47;;;;;;;;;;5065391;28;20480;-77
2022/05/08 12:28:57;;;;;;;5.50;5.10;;;;;;;;;;5060196;28;20541;-77
2022/05/08 12:31:32;;;;;;;6.37;5.77;;;;;;;;;;5045911;28;21829;-77
2022/05/08 12:34:11;;;;;;;5.93;5.33;;;;;;;;;;5052164;28;20525;-76
2022/05/08 12:36:48;;;;;;;5.70;5.20;;;;;;;;;;5067702;28;20461;-76
2022/05/08 12:39:24;;;;;;;7.10;5.67;;;;;;;;;;5046271;28;20985;-76
2022/05/08 12:41:59;;;;;;;6.53;5.93;;;;;;;;;;5040410;28;20443;-76
2022/05/08 12:44:36;;;;;;;5.80;5.30;;;;;;;;;;5047414;28;20438;-77
2022/05/08 12:47:12;;;;;;;6.20;5.70;;;;;;;;;;5042084;28;20565;-77
2022/05/08 12:49:49;;;;;;;6.30;5.70;;;;;;;;;;5047029;28;20937;-76
2022/05/08 12:52:27;;;;;;;5.67;5.17;;;;;;;;;;5041665;28;20443;-77
2022/05/08 12:55:04;;;;;;;8.33;6.03;;;;;;;;;;5041110;28;20438;-76
2022/05/08 13:00:34;;;;;;;6.97;6.37;;;;;;;;;;5046722;28;20445;-77
2022/05/08 13:03:17;;;;;;;6.80;6.20;;;;;;;;;;5047477;28;20533;-77
2022/05/08 13:05:54;;;;;;;7.33;6.63;;;;;;;;;;5038482;28;20440;-77
2022/05/08 13:08:30;;;;;;;6.40;5.80;;;;;;;;;;5046711;28;20469;-77
2022/05/08 13:11:06;;;;;;;6.27;5.67;;;;;;;;;;5041655;28;20451;-77
2022/05/08 13:13:41;;;;;;;6.20;5.63;;;;;;;;;;5047869;28;20446;-77
2022/05/08 13:16:18;;;;;;;6.57;5.97;;;;;;;;;;5033795;28;20454;-77
2022/05/08 13:18:53;;;;;;;5.97;5.37;;;;;;;;;;5042373;28;21937;-77
2022/05/08 13:21:31;;;;;;;8.13;6.70;;;;;;;;;;5048316;28;20457;-77
2022/05/08 13:24:08;;;;;;;6.40;5.77;;;;;;;;;;5034099;28;20816;-77
2022/05/08 13:26:44;;;;;;;6.00;5.50;;;;;;;;;;5047753;28;20843;-77
2022/05/08 13:29:19;;;;;;;6.57;6.00;;;;;;;;;;5032088;28;20434;-77
2022/05/08 13:31:56;;;;;;;6.93;6.27;;;;;;;;;;5048208;28;20477;-77
2022/05/08 13:34:31;;;;;;;6.90;6.13;;;;;;;;;;5049183;28;20470;-77
2022/05/08 13:37:07;;;;;;;6.27;5.67;;;;;;;;;;5046497;28;20439;-77
2022/05/08 13:39:43;;;;;;;6.13;5.60;;;;;;;;;;5050147;28;20454;-77
2022/05/08 13:42:18;;;;;;;5.87;5.37;;;;;;;;;;5047408;28;20869;-77
2022/05/08 13:44:55;;;;;;;7.00;6.30;;;;;;;;;;5036839;28;20458;-77
2022/05/08 13:47:32;;;;;;;7.83;7.10;;;;;;;;;;5047735;28;20594;-77
2022/05/08 13:50:08;;;;;;;6.67;6.07;;;;;;;;;;5047833;28;20462;-76
2022/05/08 13:52:46;;;;;;;6.60;6.00;;;;;;;;;;5050833;28;20805;-76
2022/05/08 13:55:21;;;;;;;5.93;5.43;;;;;;;;;;5050360;28;20442;-77
2022/05/08 13:57:57;;;;;;;6.93;6.27;;;;;;;;;;5051111;28;20450;-77
2022/05/08 14:00:32;;;;;;;6.77;6.17;;;;;;;;;;5039898;28;22855;-77
2022/05/08 14:03:09;;;;;;;7.87;7.17;;;;;;;;;;5048387;28;20454;-76
2022/05/08 14:05:45;;;;;;;8.10;7.20;;;;;;;;;;5046490;28;20453;-76
2022/05/08 14:08:21;;;;;;;6.80;6.20;;;;;;;;;;5049544;28;20466;-76
2022/05/08 14:10:58;;;;;;;6.90;6.30;;;;;;;;;;5045596;28;20455;-76
2022/05/08 14:13:34;;;;;;;7.60;6.63;;;;;;;;;;5043986;28;20450;-76
2022/05/08 14:16:09;;;;;;;6.30;5.70;;;;;;;;;;5048828;28;20450;-77
2022/05/08 14:18:46;;;;;;;6.87;6.27;;;;;;;;;;5045276;28;20431;-77
2022/05/08 14:21:21;;;;;;;7.23;6.60;;;;;;;;;;5050024;28;20458;-77
2022/05/08 14:23:57;;;;;;;7.23;6.20;;;;;;;;;;5050621;28;20431;-77
2022/05/08 14:26:32;;;;;;;6.97;6.27;;;;;;;;;;5048831;28;20889;-77
2022/05/08 14:29:08;;;;;;;6.47;5.87;;;;;;;;;;5048792;28;20793;-75
2022/05/08 14:37:42;;;;;;;6.80;6.10;;;;;;;;;;5049323;28;20939;-77
2022/05/08 14:40:18;;;;;;;6.47;5.83;;;;;;;;;;5050349;28;20970;-77
2022/05/08 14:42:54;;;;;;;7.30;5.10;;;;;;;;;;5052214;28;20462;-77
2022/05/08 14:45:31;;;;;;;7.30;6.60;;;;;;;;;;5047212;28;20450;-77
2022/05/08 14:48:07;;;;;;;6.30;5.80;;;;;;;;;;5041671;28;20561;-77
2022/05/08 14:50:44;;;;;;;6.43;5.83;;;;;;;;;;5048736;28;20945;-77
2022/05/08 14:53:20;;;;;;;6.47;5.97;;;;;;;;;;5049759;28;20850;-77
2022/05/08 14:55:55;;;;;;;7.43;6.73;;;;;;;;;;5048851;28;20446;-77
2022/05/08 14:58:32;;;;;;;6.83;6.10;;;;;;;;;;5050369;28;20824;-77
2022/05/08 15:01:08;;;;;;;6.93;6.33;;;;;;;;;;5051302;28;20793;-77
2022/05/08 15:03:44;;;;;;;6.63;6.03;;;;;;;;;;5048710;28;20435;-77
2022/05/08 15:06:21;;;;;;;7.50;5.90;;;;;;;;;;5050199;28;20454;-77
2022/05/08 15:08:59;;;;;;;6.83;6.23;;;;;;;;;;5048645;28;20473;-77
2022/05/08 15:11:35;;;;;;;6.60;6.10;;;;;;;;;;5050357;28;20486;-77
2022/05/08 15:14:10;;;;;;;5.73;5.23;;;;;;;;;;5049807;28;21482;-77
2022/05/08 15:16:45;;;;;;;6.13;5.53;;;;;;;;;;5042574;28;20450;-76
2022/05/08 15:19:23;;;;;;;5.97;5.37;;;;;;;;;;5047715;28;20443;-76
2022/05/08 15:22:00;;;;;;;5.40;4.90;;;;;;;;;;5042662;28;20454;-76
2022/05/08 15:24:35;;;;;;;6.10;5.50;;;;;;;;;;5046466;28;20479;-76
2022/05/08 15:27:11;;;;;;;6.57;5.60;;;;;;;;;;5049397;28;20458;-76
2022/05/08 15:29:46;;;;;;;6.17;5.57;;;;;;;;;;5049679;28;20933;-76
2022/05/08 15:32:21;;;;;;;6.07;5.47;;;;;;;;;;5046043;28;20486;-76
2022/05/08 15:34:59;;;;;;;6.67;6.07;;;;;;;;;;5045796;28;20994;-76
2022/05/08 15:37:36;;;;;;;6.50;5.90;;;;;;;;;;5041509;28;20446;-76
2022/05/08 15:40:12;;;;;;;6.47;5.87;;;;;;;;;;5047087;28;20933;-76
2022/05/08 15:42:48;;;;;;;7.67;5.63;;;;;;;;;;5049154;28;20805;-76
2022/05/08 15:45:24;;;;;;;6.87;6.27;;;;;;;;;;5049370;28;20801;-76
2022/05/08 15:47:59;;;;;;;6.50;5.63;;;;;;;;;;5044523;28;20815;-76
2022/05/08 15:50:34;;;;;;;7.10;6.40;;;;;;;;;;5040635;28;20537;-76
2022/05/08 15:53:11;;;;;;;6.47;5.87;;;;;;;;;;5049672;28;20806;-76
2022/05/08 15:55:47;;;;;;;6.00;5.50;;;;;;;;;;5046365;28;20481;-76
2022/05/08 15:58:22;;;;;;;6.10;5.60;;;;;;;;;;5047755;28;20906;-76
2022/05/08 16:00:57;;;;;;;6.20;5.70;;;;;;;;;;5048348;28;20435;-76
2022/05/08 16:03:34;;;;;;;6.57;5.97;;;;;;;;;;5039297;28;20456;-76